Time;durP1;ratioP1;P1;durP2;ratioP2;P2;SDS_P1;SDS_P2;PMS_P1;PMS_P2;Temp;Humidity;BMP_temperature;BMP_pressure;BME280_temperature;BME280_humidity;BME280_pressure;Samples;Min_cycle;Max_cycle;Signal;HPM_P1;HPM_P2
2022/05/09 00:00:52;;;;;;;17.89;10.32;;;;;;;;;;356147;151;857314;-54
2022/05/09 00:01:55;;;;;;;20.67;10.55;;;;;;;;;;356079;151;865017;-54
2022/05/09 00:02:57;;;;;;;21.46;10.33;;;;;;;;;;356068;151;859545;-54
2022/05/09 00:03:58;;;;;;;19.29;10.54;;;;;;;;;;355134;151;864683;-55
2022/05/09 00:05:00;;;;;;;20.26;11.64;;;;;;;;;;354721;151;857175;-54
2022/05/09 00:06:01;;;;;;;21.37;11.09;;;;;;;;;;354414;151;857343;-55
2022/05/09 00:07:04;;;;;;;22.12;10.94;;;;;;;;;;354419;151;864805;-54
2022/05/09 00:08:06;;;;;;;19.94;11.22;;;;;;;;;;354357;151;857675;-54
2022/05/09 00:09:07;;;;;;;20.53;11.39;;;;;;;;;;354454;151;858700;-54
2022/05/09 00:10:09;;;;;;;21.37;10.93;;;;;;;;;;354338;151;865105;-54
2022/05/09 00:11:11;;;;;;;21.82;11.07;;;;;;;;;;354394;151;859010;-54
2022/05/09 00:12:13;;;;;;;25.31;11.84;;;;;;;;;;355802;151;858693;-55
2022/05/09 00:13:14;;;;;;;20.94;11.91;;;;;;;;;;356714;151;865260;-54
2022/05/09 00:14:16;;;;;;;23.22;12.01;;;;;;;;;;356729;151;857444;-54
2022/05/09 00:15:17;;;;;;;21.69;12.25;;;;;;;;;;356765;151;857168;-54
2022/05/09 00:16:20;;;;;;;21.64;12.78;;;;;;;;;;356780;151;857253;-54
2022/05/09 00:17:22;;;;;;;23.41;12.32;;;;;;;;;;354228;152;864707;-54
2022/05/09 00:18:24;;;;;;;23.81;12.69;;;;;;;;;;354552;151;860065;-54
2022/05/09 00:19:25;;;;;;;26.64;12.28;;;;;;;;;;354350;152;857239;-54
2022/05/09 00:20:27;;;;;;;20.24;11.92;;;;;;;;;;354547;151;864733;-54
2022/05/09 00:21:33;;;;;;;22.22;12.49;;;;;;;;;;356855;151;857282;-53
2022/05/09 00:22:44;;;;;;;24.73;13.00;;;;;;;;;;356465;151;857237;-55
2022/05/09 00:23:45;;;;;;;23.96;12.49;;;;;;;;;;356195;151;857368;-55
2022/05/09 00:24:47;;;;;;;22.66;12.22;;;;;;;;;;355217;151;857775;-55
2022/05/09 00:25:49;;;;;;;23.11;11.80;;;;;;;;;;354244;151;858092;-54
2022/05/09 00:26:50;;;;;;;23.50;10.25;;;;;;;;;;354263;151;857150;-54
2022/05/09 00:27:52;;;;;;;20.99;11.99;;;;;;;;;;354229;151;857232;-54
2022/05/09 00:28:54;;;;;;;26.81;11.36;;;;;;;;;;354367;151;857295;-55
2022/05/09 00:29:55;;;;;;;23.66;11.63;;;;;;;;;;355196;151;864784;-54
2022/05/09 00:30:57;;;;;;;20.89;10.64;;;;;;;;;;354266;151;857501;-55
2022/05/09 00:31:58;;;;;;;24.91;11.09;;;;;;;;;;355108;151;857262;-55
2022/05/09 00:33:00;;;;;;;21.35;11.31;;;;;;;;;;356034;151;857100;-54
2022/05/09 00:34:01;;;;;;;25.77;12.72;;;;;;;;;;355174;151;857304;-55
2022/05/09 00:35:03;;;;;;;25.69;12.94;;;;;;;;;;355816;151;857217;-54
2022/05/09 00:36:06;;;;;;;23.53;12.45;;;;;;;;;;356546;151;857693;-55
2022/05/09 00:37:07;;;;;;;21.82;12.35;;;;;;;;;;355881;151;859066;-55
2022/05/09 00:38:09;;;;;;;21.92;12.24;;;;;;;;;;356279;151;857742;-55
2022/05/09 00:39:10;;;;;;;23.23;13.02;;;;;;;;;;356707;151;857225;-55
2022/05/09 00:40:14;;;;;;;27.16;14.04;;;;;;;;;;352851;151;857356;-55
2022/05/09 00:41:34;;;;;;;23.19;12.47;;;;;;;;;;352563;152;857634;-54
2022/05/09 00:42:36;;;;;;;29.21;13.07;;;;;;;;;;352171;152;857357;-54
2022/05/09 00:43:38;;;;;;;26.19;14.09;;;;;;;;;;352531;152;864982;-54
2022/05/09 00:44:40;;;;;;;27.25;12.85;;;;;;;;;;359522;149;858685;-54
2022/05/09 00:45:41;;;;;;;21.82;12.01;;;;;;;;;;361290;149;857861;-54
2022/05/09 00:46:48;;;;;;;26.19;13.04;;;;;;;;;;361317;149;865867;-55
2022/05/09 00:47:49;;;;;;;27.06;12.72;;;;;;;;;;361026;149;865361;-54
2022/05/09 00:48:51;;;;;;;23.92;12.56;;;;;;;;;;357503;149;857253;-54
2022/05/09 00:49:55;;;;;;;23.69;11.94;;;;;;;;;;355172;151;857400;-54
2022/05/09 00:50:57;;;;;;;22.73;12.89;;;;;;;;;;354066;151;857236;-55
2022/05/09 00:52:15;;;;;;;26.09;12.53;;;;;;;;;;355028;151;859695;-55
2022/05/09 00:53:18;;;;;;;24.78;12.22;;;;;;;;;;356313;151;859069;-57
2022/05/09 00:54:19;;;;;;;23.57;12.54;;;;;;;;;;355811;151;857260;-54
2022/05/09 00:55:25;;;;;;;19.89;11.59;;;;;;;;;;356636;151;857078;-54
2022/05/09 00:56:29;;;;;;;23.83;11.83;;;;;;;;;;356460;151;857218;-54
2022/05/09 00:57:35;;;;;;;22.64;11.69;;;;;;;;;;356595;151;857249;-55
2022/05/09 00:58:41;;;;;;;21.16;11.57;;;;;;;;;;356543;151;856437;-55
2022/05/09 00:59:43;;;;;;;21.18;10.72;;;;;;;;;;347958;153;857090;-56
2022/05/09 01:00:45;;;;;;;11.47;7.15;;;;;;;;;;354891;151;858642;-56
2022/05/09 01:01:47;;;;;;;14.51;7.58;;;;;;;;;;356751;151;857168;-56
2022/05/09 01:02:51;;;;;;;14.63;9.44;;;;;;;;;;356748;151;865340;-56
2022/05/09 01:04:12;;;;;;;14.46;7.69;;;;;;;;;;355680;151;857217;-56
2022/05/09 01:05:15;;;;;;;16.57;8.86;;;;;;;;;;355102;151;857834;-55
2022/05/09 01:06:17;;;;;;;14.36;6.90;;;;;;;;;;354501;151;859189;-55
2022/05/09 01:07:18;;;;;;;14.41;8.26;;;;;;;;;;354907;151;857213;-55
2022/05/09 01:08:20;;;;;;;15.76;7.99;;;;;;;;;;356232;151;864924;-55
2022/05/09 01:09:22;;;;;;;14.92;9.48;;;;;;;;;;356333;151;866826;-54
2022/05/09 01:10:25;;;;;;;15.43;9.07;;;;;;;;;;356347;151;859226;-54
2022/05/09 01:11:27;;;;;;;15.64;8.70;;;;;;;;;;356276;151;859053;-54
2022/05/09 01:12:29;;;;;;;14.66;8.95;;;;;;;;;;356349;151;859015;-54
2022/05/09 01:13:32;;;;;;;15.11;8.85;;;;;;;;;;356247;151;859629;-54
2022/05/09 01:14:34;;;;;;;15.43;9.05;;;;;;;;;;356326;151;856732;-54
2022/05/09 01:15:35;;;;;;;13.11;8.83;;;;;;;;;;356296;151;857067;-55
2022/05/09 01:16:38;;;;;;;15.71;9.07;;;;;;;;;;356390;151;859560;-54
2022/05/09 01:17:40;;;;;;;16.62;9.33;;;;;;;;;;356175;151;866145;-54
2022/05/09 01:18:41;;;;;;;14.79;9.31;;;;;;;;;;356288;151;866396;-54
2022/05/09 01:19:44;;;;;;;13.90;8.88;;;;;;;;;;354552;151;858160;-55
2022/05/09 01:20:46;;;;;;;14.11;9.33;;;;;;;;;;351931;153;864859;-54
2022/05/09 01:21:49;;;;;;;14.32;9.27;;;;;;;;;;352031;153;859840;-54
2022/05/09 01:22:51;;;;;;;15.41;9.51;;;;;;;;;;352048;153;857741;-54
2022/05/09 01:23:52;;;;;;;15.94;9.34;;;;;;;;;;347172;152;857354;-54
2022/05/09 01:24:54;;;;;;;14.32;9.04;;;;;;;;;;348117;152;857310;-56
2022/05/09 01:25:57;;;;;;;14.88;8.70;;;;;;;;;;354431;151;857291;-55
2022/05/09 01:26:59;;;;;;;15.75;8.69;;;;;;;;;;356189;151;857317;-53
2022/05/09 01:28:00;;;;;;;13.09;8.69;;;;;;;;;;356099;151;859042;-54
2022/05/09 01:29:04;;;;;;;14.26;8.19;;;;;;;;;;356154;151;858840;-54
2022/05/09 01:30:20;;;;;;;14.41;7.86;;;;;;;;;;355618;151;858062;-54
2022/05/09 01:31:22;;;;;;;18.88;9.21;;;;;;;;;;355940;151;857642;-54
2022/05/09 01:32:25;;;;;;;15.07;8.86;;;;;;;;;;356145;151;857688;-54
2022/05/09 01:33:29;;;;;;;16.09;8.74;;;;;;;;;;354524;151;858709;-55
2022/05/09 01:34:30;;;;;;;15.14;8.42;;;;;;;;;;354404;152;857353;-54
2022/05/09 01:35:34;;;;;;;13.93;6.99;;;;;;;;;;354702;152;858078;-55
2022/05/09 01:36:36;;;;;;;12.74;7.25;;;;;;;;;;354629;152;857307;-55
2022/05/09 01:37:38;;;;;;;13.43;7.70;;;;;;;;;;353502;151;859351;-55
2022/05/09 01:38:40;;;;;;;13.86;7.29;;;;;;;;;;356159;151;857136;-55
2022/05/09 01:39:42;;;;;;;15.29;7.38;;;;;;;;;;354615;151;864949;-54
2022/05/09 01:40:43;;;;;;;19.51;8.47;;;;;;;;;;352076;153;857969;-54
2022/05/09 01:41:45;;;;;;;14.53;8.15;;;;;;;;;;351978;153;864922;-54
2022/05/09 01:42:47;;;;;;;16.53;8.39;;;;;;;;;;352036;153;857104;-54
2022/05/09 01:43:49;;;;;;;15.87;9.62;;;;;;;;;;351983;153;857568;-54
2022/05/09 01:44:50;;;;;;;24.57;10.88;;;;;;;;;;360023;148;857130;-54
2022/05/09 01:45:52;;;;;;;20.38;10.04;;;;;;;;;;353713;152;857202;-54
2022/05/09 01:49:34;;;;;;;24.98;11.59;;;;;;;;;;354063;151;864817;-54
2022/05/09 01:50:36;;;;;;;24.49;11.38;;;;;;;;;;356068;151;857617;-54
2022/05/09 01:51:38;;;;;;;26.09;12.84;;;;;;;;;;356177;151;857716;-54
2022/05/09 01:52:40;;;;;;;27.54;13.63;;;;;;;;;;356090;151;857320;-54
2022/05/09 01:53:45;;;;;;;24.78;12.06;;;;;;;;;;356149;151;858162;-54
2022/05/09 01:54:45;;;;;;;29.64;13.11;;;;;;;;;;355918;151;860030;-54
2022/05/09 01:55:46;;;;;;;30.22;14.51;;;;;;;;;;356167;151;858201;-54
2022/05/09 01:56:48;;;;;;;29.79;13.47;;;;;;;;;;356042;151;865945;-54
2022/05/09 01:57:50;;;;;;;26.99;13.46;;;;;;;;;;356115;151;865739;-54
2022/05/09 01:58:51;;;;;;;36.11;13.29;;;;;;;;;;356119;151;857090;-54
2022/05/09 01:59:53;;;;;;;30.24;14.80;;;;;;;;;;356150;151;857418;-53
2022/05/09 02:00:54;;;;;;;29.79;12.66;;;;;;;;;;355477;151;858989;-54
2022/05/09 02:01:57;;;;;;;34.84;15.56;;;;;;;;;;354765;152;865726;-54
2022/05/09 02:03:02;;;;;;;30.21;14.21;;;;;;;;;;354772;151;866582;-54
2022/05/09 02:04:03;;;;;;;30.87;15.13;;;;;;;;;;353216;150;867617;-55
2022/05/09 02:05:05;;;;;;;32.94;14.72;;;;;;;;;;352456;151;864973;-55
2022/05/09 02:06:09;;;;;;;33.52;15.51;;;;;;;;;;354467;152;857342;-55
2022/05/09 02:07:11;;;;;;;30.23;15.34;;;;;;;;;;353094;150;858447;-55
2022/05/09 02:08:12;;;;;;;30.01;15.27;;;;;;;;;;353932;150;860081;-54
2022/05/09 02:09:14;;;;;;;32.03;15.39;;;;;;;;;;355458;150;857423;-54
2022/05/09 02:10:17;;;;;;;23.93;11.99;;;;;;;;;;359258;150;857257;-54
2022/05/09 02:11:18;;;;;;;26.40;13.18;;;;;;;;;;359330;150;858124;-54
2022/05/09 02:12:20;;;;;;;31.60;13.66;;;;;;;;;;359333;150;857277;-54
2022/05/09 02:13:21;;;;;;;32.84;14.22;;;;;;;;;;359295;150;857739;-54
2022/05/09 02:14:23;;;;;;;31.14;13.63;;;;;;;;;;359216;150;865114;-53
2022/05/09 02:15:31;;;;;;;23.86;12.79;;;;;;;;;;359329;150;857214;-53
2022/05/09 02:16:28;;;;;;;30.81;12.98;;;;;;;;;;358753;149;857679;-54
2022/05/09 02:17:30;;;;;;;29.71;13.55;;;;;;;;;;359297;150;857535;-54
2022/05/09 02:18:32;;;;;;;33.47;15.23;;;;;;;;;;359277;150;864760;-54
2022/05/09 02:19:34;;;;;;;30.41;14.32;;;;;;;;;;359303;150;858204;-54
2022/05/09 02:20:35;;;;;;;32.34;15.30;;;;;;;;;;359268;150;864225;-54
2022/05/09 02:21:37;;;;;;;28.27;13.74;;;;;;;;;;359223;150;857213;-54
2022/05/09 02:22:39;;;;;;;26.34;13.75;;;;;;;;;;359141;150;857211;-54
2022/05/09 02:23:40;;;;;;;29.01;13.39;;;;;;;;;;359128;150;857617;-54
2022/05/09 02:24:41;;;;;;;26.31;14.24;;;;;;;;;;359196;150;857182;-54
2022/05/09 02:25:45;;;;;;;30.49;13.71;;;;;;;;;;359217;150;856498;-54
2022/05/09 02:26:47;;;;;;;34.01;14.84;;;;;;;;;;358925;149;858908;-54
2022/05/09 02:27:48;;;;;;;33.57;14.24;;;;;;;;;;359074;150;857397;-54
2022/05/09 02:28:50;;;;;;;30.01;13.91;;;;;;;;;;359159;149;859286;-54
2022/05/09 02:29:51;;;;;;;25.83;12.82;;;;;;;;;;359122;149;857226;-53
2022/05/09 02:30:53;;;;;;;26.29;13.34;;;;;;;;;;359208;149;857273;-54
2022/05/09 02:31:57;;;;;;;30.52;15.14;;;;;;;;;;359108;150;864971;-53
2022/05/09 02:32:58;;;;;;;27.72;13.66;;;;;;;;;;359114;149;856322;-54
2022/05/09 02:34:01;;;;;;;27.74;13.19;;;;;;;;;;359146;150;857157;-54
2022/05/09 02:35:03;;;;;;;28.45;13.28;;;;;;;;;;359124;149;859271;-54
2022/05/09 02:36:04;;;;;;;26.41;13.09;;;;;;;;;;359169;149;857248;-54
2022/05/09 02:37:06;;;;;;;27.53;13.60;;;;;;;;;;358913;149;859909;-54
2022/05/09 02:38:08;;;;;;;27.46;13.09;;;;;;;;;;355392;151;857511;-54
2022/05/09 02:39:10;;;;;;;33.21;13.47;;;;;;;;;;355405;151;857084;-55
2022/05/09 02:40:12;;;;;;;26.14;12.76;;;;;;;;;;356886;150;864975;-54
2022/05/09 02:41:14;;;;;;;26.56;12.87;;;;;;;;;;357286;149;858231;-54
2022/05/09 02:42:16;;;;;;;26.14;12.58;;;;;;;;;;357460;150;864704;-53
2022/05/09 02:43:17;;;;;;;24.00;11.24;;;;;;;;;;357453;150;857191;-53
2022/05/09 02:44:19;;;;;;;27.86;12.48;;;;;;;;;;358132;150;857232;-54
2022/05/09 02:45:20;;;;;;;20.61;9.44;;;;;;;;;;359192;150;857150;-53
2022/05/09 02:46:22;;;;;;;24.55;11.86;;;;;;;;;;359173;149;857332;-53
2022/05/09 02:47:26;;;;;;;20.67;10.51;;;;;;;;;;359152;150;864847;-54
2022/05/09 02:48:29;;;;;;;23.66;10.84;;;;;;;;;;358953;149;857192;-54
2022/05/09 02:49:31;;;;;;;25.86;11.51;;;;;;;;;;357637;150;857401;-54
2022/05/09 03:02:39;;;;;;;23.01;11.62;;;;;;;13.21;68.76;100399.31;402292;133;872445;-54
2022/05/09 03:05:02;;;;;;;;;;;;;;;13.12;68.79;100402.02;392642;135;864734;-53
2022/05/09 03:06:04;;;;;;;24.51;10.25;;;;;;;13.14;68.85;100406.31;389776;135;857214;-53
2022/05/09 03:07:11;;;;;;;21.35;10.32;;;;;;;13.17;68.74;100412.36;389748;135;865834;-53
2022/05/09 03:08:14;;;;;;;20.30;10.25;;;;;;;13.17;68.67;100410.63;389476;138;858718;-54
2022/05/09 03:09:15;;;;;;;23.99;10.17;;;;;;;13.17;68.70;100415.83;389683;138;861618;-54
2022/05/09 03:10:19;;;;;;;19.19;10.32;;;;;;;13.17;68.82;100413.23;389706;135;858790;-55
2022/05/09 03:11:21;;;;;;;21.25;10.06;;;;;;;13.20;68.81;100409.72;389842;135;859177;-55
2022/05/09 03:12:22;;;;;;;17.31;9.34;;;;;;;13.19;68.78;100415.80;395294;135;857163;-54
2022/05/09 03:13:24;;;;;;;19.44;8.99;;;;;;;13.20;68.85;100414.92;389628;138;865464;-53
2022/05/09 03:14:26;;;;;;;18.49;9.63;;;;;;;13.20;68.80;100417.52;389689;135;865806;-53
2022/05/09 03:15:28;;;;;;;15.35;8.56;;;;;;;13.20;68.81;100418.39;389706;138;857702;-54
2022/05/09 03:16:30;;;;;;;17.26;9.24;;;;;;;13.21;68.71;100412.31;389495;138;865427;-53
2022/05/09 03:17:32;;;;;;;17.44;9.05;;;;;;;13.14;69.24;100415.86;389680;138;866981;-53
2022/05/09 03:18:34;;;;;;;21.16;8.99;;;;;;;13.13;69.07;100421.94;389653;135;865702;-53
2022/05/09 03:19:36;;;;;;;15.37;6.91;;;;;;;13.13;69.18;100419.34;389755;135;857025;-53
2022/05/09 03:20:39;;;;;;;17.12;8.31;;;;;;;13.14;69.06;100423.66;389622;135;865594;-53
2022/05/09 03:21:40;;;;;;;14.73;7.49;;;;;;;13.16;68.84;100424.51;389598;138;858790;-53
2022/05/09 03:22:42;;;;;;;15.92;7.22;;;;;;;13.18;68.59;100422.75;389557;135;859981;-53
2022/05/09 03:23:45;;;;;;;15.13;6.67;;;;;;;13.19;68.47;100421.88;389623;138;856585;-53
2022/05/09 03:24:48;;;;;;;15.87;7.92;;;;;;;13.23;68.42;100431.36;389497;135;857298;-53
2022/05/09 03:25:50;;;;;;;14.09;7.12;;;;;;;13.24;68.29;100430.48;389594;138;857075;-53
2022/05/09 03:26:52;;;;;;;16.61;7.49;;;;;;;13.26;68.32;100427.88;389523;138;856140;-53
2022/05/09 03:27:54;;;;;;;15.32;7.07;;;;;;;13.28;69.09;100428.73;389567;135;857240;-53
2022/05/09 03:28:56;;;;;;;14.80;7.70;;;;;;;13.27;68.91;100433.05;389479;137;858689;-53
2022/05/09 03:29:57;;;;;;;15.17;7.69;;;;;;;13.27;68.95;100432.20;389510;137;866067;-53
2022/05/09 03:31:00;;;;;;;14.48;7.45;;;;;;;13.29;69.06;100431.29;389589;135;865961;-53
2022/05/09 03:32:02;;;;;;;16.36;6.98;;;;;;;13.34;68.90;100430.37;389442;138;857461;-53
2022/05/09 03:33:04;;;;;;;14.45;7.42;;;;;;;13.39;68.75;100424.26;389504;135;864902;-54
2022/05/09 03:34:06;;;;;;;14.42;7.08;;;;;;;13.44;68.72;100432.02;389414;138;857262;-54
2022/05/09 03:35:09;;;;;;;11.81;6.24;;;;;;;13.46;68.70;100430.27;389588;138;857162;-53
2022/05/09 03:36:11;;;;;;;10.26;6.16;;;;;;;13.52;68.43;100439.75;389405;138;857202;-53
2022/05/09 03:37:13;;;;;;;10.87;5.84;;;;;;;13.55;68.30;100437.95;392273;132;857902;-53
2022/05/09 03:38:15;;;;;;;10.44;5.42;;;;;;;13.57;68.13;100441.39;395815;132;864989;-53
2022/05/09 03:39:17;;;;;;;9.38;5.29;;;;;;;13.59;67.99;100436.19;389394;138;865577;-54
2022/05/09 03:40:20;;;;;;;10.65;5.41;;;;;;;13.60;67.84;100435.30;389423;138;864902;-54
2022/05/09 03:41:22;;;;;;;10.74;5.33;;;;;;;13.58;67.82;100440.52;389506;135;857083;-54
2022/05/09 03:42:24;;;;;;;10.98;5.11;;;;;;;13.62;67.97;100438.75;389559;138;858599;-53
2022/05/09 03:43:26;;;;;;;9.00;4.77;;;;;;;13.62;67.81;100436.15;389668;135;864829;-54
2022/05/09 03:44:27;;;;;;;12.51;4.86;;;;;;;;;;393426;135;859442;-54
2022/05/09 03:45:29;;;;;;;10.65;4.36;;;;;;;;;;389685;135;857753;-54
2022/05/09 03:46:30;;;;;;;8.41;4.70;;;;;;;;;;389720;135;857800;-54
2022/05/09 03:47:32;;;;;;;6.19;4.23;;;;;;;;;;389686;138;864995;-53
2022/05/09 03:48:34;;;;;;;9.19;4.79;;;;;;;;;;389673;138;857206;-53
2022/05/09 03:49:35;;;;;;;7.19;4.21;;;;;;;;;;389732;135;856342;-54
2022/05/09 03:50:37;;;;;;;9.80;4.31;;;;;;;;;;395776;135;857112;-54
2022/05/09 03:51:39;;;;;;;7.71;4.19;;;;;;;;;;389674;135;864789;-54
2022/05/09 03:52:40;;;;;;;6.59;4.08;;;;;;;;;;391810;135;857161;-53
2022/05/09 03:53:42;;;;;;;6.59;4.14;;;;;;;;;;396761;135;857180;-54
2022/05/09 03:54:43;;;;;;;5.73;3.61;;;;;;;;;;394897;135;857627;-53
2022/05/09 03:55:45;;;;;;;5.05;3.53;;;;;;;;;;389608;138;856568;-54
2022/05/09 03:56:46;;;;;;;5.04;3.55;;;;;;;;;;392523;134;857211;-55
2022/05/09 03:57:50;;;;;;;7.17;3.39;;;;;;;;;;396055;132;857076;-56
2022/05/09 03:58:51;;;;;;;5.60;3.36;;;;;;;;;;389640;138;856109;-54
2022/05/09 03:59:53;;;;;;;5.34;2.68;;;;;;;;;;389729;138;857266;-54
2022/05/09 04:00:54;;;;;;;5.16;3.02;;;;;;;;;;389758;135;857275;-53
2022/05/09 04:01:56;;;;;;;5.97;3.22;;;;;;;;;;389644;135;864910;-56
2022/05/09 04:02:58;;;;;;;4.39;3.01;;;;;;;;;;388595;138;864771;-54
2022/05/09 04:03:59;;;;;;;3.41;2.89;;;;;;;;;;387916;134;857202;-53
2022/05/09 04:05:01;;;;;;;3.70;2.69;;;;;;;;;;384222;138;858725;-53
2022/05/09 04:06:03;;;;;;;8.27;3.09;;;;;;;;;;384266;138;859126;-54
2022/05/09 04:07:04;;;;;;;7.76;4.01;;;;;;;;;;384346;137;858721;-53
2022/05/09 04:08:08;;;;;;;7.16;3.55;;;;;;;;;;384272;138;859011;-54
2022/05/09 04:09:09;;;;;;;4.51;2.87;;;;;;;;;;384210;138;864764;-52
2022/05/09 04:10:12;;;;;;;3.41;2.94;;;;;;;;;;384306;137;858495;-52
2022/05/09 04:11:14;;;;;;;6.10;3.21;;;;;;;;;;390561;137;865142;-53
2022/05/09 04:12:17;;;;;;;3.89;2.94;;;;;;;;;;390684;137;857736;-54
2022/05/09 04:13:18;;;;;;;6.32;3.18;;;;;;;;;;389921;137;858126;-55
2022/05/09 04:16:49;;;;;;;4.89;2.79;;;;;;;;;;390982;137;865742;-56
2022/05/09 04:16:49;;;;;;;4.39;3.07;;;;;;;;;;384025;137;858890;-54
2022/05/09 04:17:51;;;;;;;4.86;3.32;;;;;;;;;;384292;137;856337;-55
2022/05/09 04:18:55;;;;;;;4.70;3.26;;;;;;;;;;384277;137;857764;-55
2022/05/09 04:19:55;;;;;;;4.38;2.89;;;;;;;;;;384117;138;867124;-55
2022/05/09 04:20:58;;;;;;;4.61;3.13;;;;;;;;;;384241;138;857737;-55
2022/05/09 04:22:02;;;;;;;5.19;3.34;;;;;;;;;;384155;137;866444;-55
2022/05/09 04:23:03;;;;;;;4.91;3.20;;;;;;;;;;383811;137;858932;-55
2022/05/09 04:24:05;;;;;;;5.20;3.91;;;;;;;;;;384013;137;857807;-55
2022/05/09 04:25:07;;;;;;;5.55;3.22;;;;;;;;;;383901;138;864722;-56
2022/05/09 04:26:10;;;;;;;5.17;3.30;;;;;;;;;;388128;137;857648;-55
2022/05/09 04:27:11;;;;;;;5.15;3.31;;;;;;;;;;383966;138;857314;-55
2022/05/09 04:28:13;;;;;;;8.41;3.53;;;;;;;;;;384109;137;858609;-55
2022/05/09 04:29:14;;;;;;;4.54;3.61;;;;;;;;;;382979;140;857222;-55
2022/05/09 04:30:17;;;;;;;5.55;3.31;;;;;;;;;;382169;140;864811;-55
2022/05/09 04:31:23;;;;;;;6.04;2.96;;;;;;;;;;391110;137;858928;-55
2022/05/09 04:32:22;;;;;;;3.68;2.90;;;;;;;;;;389630;137;857191;-55
2022/05/09 04:33:24;;;;;;;5.20;3.39;;;;;;;;;;394874;136;856866;-55
2022/05/09 04:34:25;;;;;;;5.53;3.00;;;;;;;;;;388548;137;865297;-55
2022/05/09 04:35:28;;;;;;;5.76;3.36;;;;;;;;;;391589;137;859937;-56
2022/05/09 04:36:30;;;;;;;4.67;3.41;;;;;;;;;;389905;137;857983;-54
2022/05/09 04:37:32;;;;;;;6.47;3.83;;;;;;;;;;387208;137;859539;-55
2022/05/09 04:38:38;;;;;;;5.80;3.31;;;;;;;;;;389721;137;857307;-55
2022/05/09 04:39:37;;;;;;;5.45;3.35;;;;;;;;;;385209;138;865275;-55
2022/05/09 04:40:40;;;;;;;5.53;3.43;;;;;;;;;;385961;137;858997;-55
2022/05/09 04:41:43;;;;;;;5.78;3.39;;;;;;;;;;391100;137;865657;-54
2022/05/09 04:42:44;;;;;;;5.00;3.64;;;;;;;;;;390926;137;857235;-54
2022/05/09 04:43:46;;;;;;;4.74;3.50;;;;;;;;;;389673;137;864722;-54
2022/05/09 04:44:48;;;;;;;5.13;3.57;;;;;;;;;;384311;137;856480;-55
2022/05/09 04:45:50;;;;;;;3.64;3.11;;;;;;;;;;384042;137;858948;-55
2022/05/09 04:46:51;;;;;;;5.28;3.19;;;;;;;;;;384051;137;858083;-54
2022/05/09 04:47:53;;;;;;;5.95;3.56;;;;;;;;;;385284;138;859097;-54
2022/05/09 04:48:54;;;;;;;3.90;3.09;;;;;;;;;;386982;137;859180;-54
2022/05/09 04:49:56;;;;;;;7.37;3.44;;;;;;;;;;384247;137;857322;-54
2022/05/09 04:50:58;;;;;;;4.48;3.36;;;;;;;;;;384058;137;857290;-54
2022/05/09 04:51:59;;;;;;;6.83;3.03;;;;;;;;;;384048;138;865454;-56
2022/05/09 04:53:01;;;;;;;5.76;3.06;;;;;;;;;;386276;136;858397;-54
2022/05/09 04:54:03;;;;;;;4.51;3.28;;;;;;;;;;384060;137;864801;-54
2022/05/09 04:55:05;;;;;;;4.14;3.13;;;;;;;;;;383990;137;857258;-54
2022/05/09 04:56:07;;;;;;;5.75;3.53;;;;;;;;;;383825;137;859018;-54
2022/05/09 04:57:09;;;;;;;6.49;3.14;;;;;;;;;;383999;138;865600;-54
2022/05/09 04:58:17;;;;;;;3.84;3.12;;;;;;;;;;384048;138;857242;-54
2022/05/09 04:59:19;;;;;;;4.38;3.21;;;;;;;;;;390875;134;857229;-54
2022/05/09 05:00:22;;;;;;;4.73;3.29;;;;;;;;;;388793;134;857585;-54
2022/05/09 05:01:24;;;;;;;4.38;2.98;;;;;;;;;;383867;140;857311;-54
2022/05/09 05:02:25;;;;;;;5.76;3.14;;;;;;;;;;384007;137;857653;-55
2022/05/09 05:03:27;;;;;;;3.89;3.20;;;;;;;;;;387516;138;864908;-54
2022/05/09 05:04:29;;;;;;;5.16;2.93;;;;;;;;;;390248;135;864786;-55
2022/05/09 05:05:30;;;;;;;5.54;3.10;;;;;;;;;;397433;135;864865;-55
2022/05/09 05:06:32;;;;;;;5.26;3.13;;;;;;;;;;395970;135;857733;-54
2022/05/09 05:07:33;;;;;;;3.69;2.84;;;;;;;;;;389702;138;863746;-54
2022/05/09 05:08:35;;;;;;;5.38;3.04;;;;;;;;;;389674;135;856355;-55
2022/05/09 05:09:37;;;;;;;7.53;3.11;;;;;;;;;;389563;138;865002;-54
2022/05/09 05:10:39;;;;;;;3.78;3.13;;;;;;;;;;389616;135;858746;-54
2022/05/09 05:11:40;;;;;;;5.06;3.26;;;;;;;;;;389865;135;865801;-54
2022/05/09 05:12:42;;;;;;;3.43;2.81;;;;;;;;;;394998;135;858252;-54
2022/05/09 05:13:43;;;;;;;6.76;3.46;;;;;;;;;;389542;138;867109;-54
2022/05/09 05:14:45;;;;;;;4.64;2.98;;;;;;;;;;389726;135;856411;-53
2022/05/09 05:15:47;;;;;;;4.41;3.04;;;;;;;;;;389584;137;859484;-54
2022/05/09 05:17:01;;;;;;;4.27;2.87;;;;;;;;;;391433;136;856269;-54
2022/05/09 05:18:03;;;;;;;3.90;3.22;;;;;;;;;;390175;135;866376;-56
2022/05/09 05:19:04;;;;;;;4.26;2.79;;;;;;;;;;389601;138;857900;-55
2022/05/09 05:20:12;;;;;;;3.99;2.72;;;;;;;;;;389478;137;857649;-55
2022/05/09 05:21:14;;;;;;;3.62;2.90;;;;;;;;;;389468;135;857038;-53
2022/05/09 05:22:16;;;;;;;4.85;3.48;;;;;;;;;;389461;137;857205;-53
2022/05/09 05:23:17;;;;;;;4.78;3.24;;;;;;;;;;389463;137;859309;-54
2022/05/09 05:24:19;;;;;;;4.08;2.89;;;;;;;;;;389482;137;858150;-53
2022/05/09 05:25:22;;;;;;;5.50;3.24;;;;;;;;;;389387;137;857610;-54
2022/05/09 05:26:24;;;;;;;3.92;2.75;;;;;;;;;;389396;138;857673;-56
2022/05/09 05:27:25;;;;;;;5.66;3.26;;;;;;;;;;389437;135;858181;-56
2022/05/09 05:28:27;;;;;;;4.45;3.11;;;;;;;;;;389403;138;857333;-54
2022/05/09 05:29:28;;;;;;;5.56;3.06;;;;;;;;;;389472;137;857261;-52
2022/05/09 05:30:32;;;;;;;4.72;3.24;;;;;;;;;;389372;138;857228;-53
2022/05/09 05:31:33;;;;;;;6.19;3.10;;;;;;;;;;391727;135;864952;-52
2022/05/09 05:32:36;;;;;;;3.70;2.59;;;;;;;;;;397231;132;857231;-53
2022/05/09 05:33:37;;;;;;;4.53;2.51;;;;;;;;;;397131;133;864890;-52
2022/05/09 05:34:39;;;;;;;4.44;2.88;;;;;;;;;;397201;135;864759;-55
2022/05/09 05:35:41;;;;;;;3.94;2.94;;;;;;;;;;397261;135;857242;-54
2022/05/09 05:36:42;;;;;;;5.54;2.91;;;;;;;;;;397306;135;856380;-54
2022/05/09 05:37:44;;;;;;;5.74;2.75;;;;;;;;;;392084;135;863796;-54
2022/05/09 05:38:51;;;;;;;5.84;3.06;;;;;;;;;;389434;138;857179;-55
2022/05/09 05:39:49;;;;;;;5.61;2.77;;;;;;;;;;388641;138;857159;-54
2022/05/09 05:40:50;;;;;;;4.04;2.69;;;;;;;;;;389466;138;859091;-54
2022/05/09 05:41:52;;;;;;;5.95;2.96;;;;;;;;;;389308;138;864765;-53
2022/05/09 05:42:53;;;;;;;4.13;2.34;;;;;;;;;;389638;138;857777;-53
2022/05/09 05:43:55;;;;;;;3.89;2.43;;;;;;;;;;389612;138;857225;-52
2022/05/09 05:44:57;;;;;;;5.01;2.91;;;;;;;;;;389649;138;857306;-53
2022/05/09 05:45:59;;;;;;;5.32;2.45;;;;;;;;;;389700;135;857249;-53
2022/05/09 05:47:04;;;;;;;6.31;3.12;;;;;;;;;;389484;138;857053;-53
2022/05/09 05:48:06;;;;;;;6.57;3.04;;;;;;;;;;389286;138;865148;-54
2022/05/09 05:49:08;;;;;;;8.81;3.43;;;;;;;;;;389566;138;857683;-54
2022/05/09 05:50:11;;;;;;;10.15;3.58;;;;;;;;;;389587;135;857092;-54
2022/05/09 05:51:14;;;;;;;7.09;3.24;;;;;;;;;;389668;135;859638;-54
2022/05/09 05:52:16;;;;;;;8.74;4.03;;;;;;;;;;394231;135;858174;-53
2022/05/09 05:53:18;;;;;;;11.89;3.62;;;;;;;;;;390187;135;857118;-54
2022/05/09 05:54:19;;;;;;;7.50;3.29;;;;;;;;;;390477;135;864929;-53
2022/05/09 05:55:21;;;;;;;6.54;3.26;;;;;;;;;;389629;135;866177;-52
2022/05/09 05:56:22;;;;;;;5.27;3.14;;;;;;;;;;389761;135;860043;-53
2022/05/09 05:57:25;;;;;;;8.74;3.71;;;;;;;;;;397361;135;866210;-53
2022/05/09 05:58:28;;;;;;;7.53;3.28;;;;;;;;;;390723;135;858866;-53
2022/05/09 05:59:30;;;;;;;8.37;3.69;;;;;;;;;;389562;137;858508;-54
2022/05/09 06:00:32;;;;;;;7.96;3.65;;;;;;;;;;389682;134;865682;-54
2022/05/09 06:01:33;;;;;;;8.51;3.89;;;;;;;;;;389684;135;858712;-54
2022/05/09 06:02:38;;;;;;;9.22;4.31;;;;;;;;;;389514;135;863910;-53
2022/05/09 06:03:39;;;;;;;8.77;3.83;;;;;;;;;;390822;135;864075;-54
2022/05/09 06:04:40;;;;;;;7.00;3.48;;;;;;;;;;387505;138;857241;-54
2022/05/09 06:05:42;;;;;;;9.95;3.68;;;;;;;;;;384757;138;857314;-54
2022/05/09 06:06:43;;;;;;;9.54;3.56;;;;;;;;;;388972;138;856737;-53
2022/05/09 06:07:46;;;;;;;6.74;3.06;;;;;;;;;;388401;138;863855;-53
2022/05/09 06:08:48;;;;;;;8.07;3.85;;;;;;;;;;384457;137;858073;-55
2022/05/09 06:09:50;;;;;;;8.16;3.30;;;;;;;;;;384483;137;857244;-54